Time;durP1;ratioP1;P1;durP2;ratioP2;P2;SDS_P1;SDS_P2;PMS_P1;PMS_P2;Temp;Humidity;BMP_temperature;BMP_pressure;BME280_temperature;BME280_humidity;BME280_pressure;Samples;Min_cycle;Max_cycle;Signal;HPM_P1;HPM_P2
2023/02/06 00:00:37;;;;;;;0.35;0.30;;;;;;;;;;4986400;28;20042;-62
2023/02/06 00:03:04;;;;;;;1.27;0.40;;;;;;;;;;4991592;28;20515;-61
2023/02/06 00:05:31;;;;;;;0.93;0.40;;;;;;;;;;5001899;28;20042;-63
2023/02/06 00:07:58;;;;;;;1.60;0.50;;;;;;;;;;4980026;28;20042;-63
2023/02/06 00:10:24;;;;;;;1.23;0.40;;;;;;;;;;4973498;28;20287;-63
2023/02/06 00:12:51;;;;;;;1.10;0.40;;;;;;;;;;4995527;28;20069;-63
2023/02/06 00:15:18;;;;;;;5.82;0.50;;;;;;;;;;4996380;28;20065;-61
2023/02/06 00:17:44;;;;;;;0.85;0.32;;;;;;;;;;4982282;28;20073;-62
2023/02/06 00:20:11;;;;;;;2.83;0.60;;;;;;;;;;4982859;28;20100;-63
2023/02/06 00:22:38;;;;;;;3.38;0.45;;;;;;;;;;4982074;28;20073;-61
2023/02/06 00:25:05;;;;;;;2.60;0.50;;;;;;;;;;5001987;28;21080;-61
2023/02/06 00:27:32;;;;;;;1.48;0.50;;;;;;;;;;5000655;28;20042;-65
2023/02/06 00:29:58;;;;;;;4.65;0.70;;;;;;;;;;4999781;28;20042;-64
2023/02/06 00:32:25;;;;;;;0.93;0.40;;;;;;;;;;5000270;28;20033;-66
2023/02/06 00:34:52;;;;;;;2.28;0.70;;;;;;;;;;5000499;28;20498;-64
2023/02/06 00:37:18;;;;;;;3.47;1.15;;;;;;;;;;4989510;28;20038;-67
2023/02/06 00:39:45;;;;;;;5.97;1.40;;;;;;;;;;5001039;28;20170;-61
2023/02/06 00:42:11;;;;;;;3.80;0.95;;;;;;;;;;5000442;28;20050;-64
2023/02/06 00:44:38;;;;;;;2.38;0.70;;;;;;;;;;5000617;28;20034;-63
2023/02/06 00:47:05;;;;;;;1.95;0.50;;;;;;;;;;5000917;28;20485;-63
2023/02/06 00:49:31;;;;;;;2.58;0.70;;;;;;;;;;4999305;28;20102;-64
2023/02/06 00:51:58;;;;;;;1.30;0.43;;;;;;;;;;5000063;28;20053;-65
2023/02/06 00:54:25;;;;;;;2.33;0.60;;;;;;;;;;5015096;28;20077;-63
2023/02/06 00:56:51;;;;;;;5.78;0.65;;;;;;;;;;4996719;28;20037;-62
2023/02/06 00:59:18;;;;;;;2.17;0.60;;;;;;;;;;4998727;28;20501;-65
2023/02/06 01:01:44;;;;;;;2.25;0.60;;;;;;;;;;4998182;28;20125;-64
2023/02/06 01:04:11;;;;;;;1.15;0.40;;;;;;;;;;5000878;28;20057;-64
2023/02/06 01:06:38;;;;;;;0.98;0.45;;;;;;;;;;4997520;28;20144;-66
2023/02/06 01:09:04;;;;;;;1.67;0.50;;;;;;;;;;4997505;28;20045;-62
2023/02/06 01:11:31;;;;;;;1.92;0.60;;;;;;;;;;5009967;28;20383;-63
2023/02/06 01:13:58;;;;;;;1.75;0.57;;;;;;;;;;5000382;28;20048;-62
2023/02/06 01:16:24;;;;;;;2.03;0.60;;;;;;;;;;4998812;28;20121;-63
2023/02/06 01:18:52;;;;;;;2.70;0.60;;;;;;;;;;5011968;28;20115;-63
2023/02/06 01:21:20;;;;;;;1.85;0.57;;;;;;;;;;5003727;28;20049;-63
2023/02/06 01:23:48;;;;;;;2.05;0.60;;;;;;;;;;4909848;28;2598560;-65
2023/02/06 01:26:17;;;;;;;2.75;0.63;;;;;;;;;;5001642;28;20585;-64
2023/02/06 01:28:45;;;;;;;2.50;0.60;;;;;;;;;;5009260;28;20045;-63
2023/02/06 01:31:12;;;;;;;2.28;0.60;;;;;;;;;;5002437;28;20045;-64
2023/02/06 01:33:39;;;;;;;2.30;0.40;;;;;;;;;;4996455;28;20046;-64
2023/02/06 01:36:05;;;;;;;1.05;0.40;;;;;;;;;;4999018;28;20437;-64
2023/02/06 01:38:32;;;;;;;1.35;0.40;;;;;;;;;;5006389;28;20108;-64
2023/02/06 01:41:00;;;;;;;1.13;0.47;;;;;;;;;;5014865;28;20151;-61
2023/02/06 01:43:32;;;;;;;0.82;0.30;;;;;;;;;;5014831;28;20772;-60
2023/02/06 01:45:59;;;;;;;0.65;0.40;;;;;;;;;;5001014;28;20077;-60
2023/02/06 01:48:30;;;;;;;1.10;0.40;;;;;;;;;;5000037;28;20053;-67
2023/02/06 01:50:57;;;;;;;1.50;0.40;;;;;;;;;;5000737;28;20092;-60
2023/02/06 01:53:24;;;;;;;1.83;0.50;;;;;;;;;;5002257;28;20108;-64
2023/02/06 01:55:52;;;;;;;2.85;0.70;;;;;;;;;;4998426;28;20048;-64
2023/02/06 01:58:24;;;;;;;0.65;0.30;;;;;;;;;;4999331;28;20085;-61
2023/02/06 02:00:50;;;;;;;1.92;0.50;;;;;;;;;;5003904;28;20054;-63
2023/02/06 02:03:39;;;;;;;0.73;0.30;;;;;;;;;;5012428;28;20175;-62
2023/02/06 02:06:07;;;;;;;3.50;0.50;;;;;;;;;;5013712;28;20552;-61
2023/02/06 02:08:38;;;;;;;1.58;0.55;;;;;;;;;;5016779;28;20053;-60
2023/02/06 02:11:06;;;;;;;0.35;0.30;;;;;;;;;;5013937;28;20045;-62
2023/02/06 02:13:35;;;;;;;1.13;0.45;;;;;;;;;;5017688;28;20418;-61
2023/02/06 02:16:33;;;;;;;1.33;0.47;;;;;;;;;;5013075;28;20052;-61
2023/02/06 02:19:26;;;;;;;2.30;0.47;;;;;;;;;;5018411;28;20044;-61
2023/02/06 02:22:07;;;;;;;1.85;0.50;;;;;;;;;;4985131;28;20041;-63
2023/02/06 02:24:49;;;;;;;2.75;0.38;;;;;;;;;;5012406;28;20046;-61
2023/02/06 02:27:22;;;;;;;0.77;0.30;;;;;;;;;;5014139;28;20774;-61
2023/02/06 02:29:57;;;;;;;2.22;0.50;;;;;;;;;;5012275;28;20083;-59
2023/02/06 02:32:42;;;;;;;1.08;0.40;;;;;;;;;;5013746;28;20115;-61
2023/02/06 02:35:15;;;;;;;1.45;0.50;;;;;;;;;;5002087;28;20050;-62
2023/02/06 02:37:51;;;;;;;2.27;0.50;;;;;;;;;;4993698;28;20042;-60
2023/02/06 02:40:35;;;;;;;2.42;0.60;;;;;;;;;;4995288;28;20045;-63
2023/02/06 02:43:14;;;;;;;3.08;0.50;;;;;;;;;;4994939;28;20081;-61
2023/02/06 02:45:47;;;;;;;4.80;0.60;;;;;;;;;;4995002;28;20123;-61
2023/02/06 02:48:25;;;;;;;1.57;0.40;;;;;;;;;;4994562;28;20329;-62
2023/02/06 02:50:53;;;;;;;0.75;0.40;;;;;;;;;;4995512;28;20341;-60
2023/02/06 02:53:20;;;;;;;1.60;0.50;;;;;;;;;;4997296;28;20060;-61
2023/02/06 02:55:47;;;;;;;1.17;0.50;;;;;;;;;;5007959;28;20034;-61
2023/02/06 02:58:15;;;;;;;2.08;0.45;;;;;;;;;;5004725;28;20066;-62
2023/02/06 03:00:46;;;;;;;3.03;0.52;;;;;;;;;;5009824;28;20049;-63
2023/02/06 03:03:14;;;;;;;1.55;0.60;;;;;;;;;;5009090;28;20145;-64
2023/02/06 03:05:46;;;;;;;1.77;0.50;;;;;;;;;;5009555;28;20439;-62
2023/02/06 03:08:26;;;;;;;1.67;0.60;;;;;;;;;;5014291;28;20046;-62
2023/02/06 03:10:56;;;;;;;1.80;0.60;;;;;;;;;;5014071;28;20068;-61
2023/02/06 03:13:29;;;;;;;1.48;0.50;;;;;;;;;;5014258;28;20057;-61
2023/02/06 03:15:56;;;;;;;0.98;0.40;;;;;;;;;;5013950;28;20045;-62
2023/02/06 03:18:30;;;;;;;2.25;0.47;;;;;;;;;;5011132;28;20073;-61
2023/02/06 03:20:58;;;;;;;0.63;0.35;;;;;;;;;;5012625;28;20040;-59
2023/02/06 03:23:31;;;;;;;1.75;0.55;;;;;;;;;;5015588;28;20348;-60
2023/02/06 03:25:59;;;;;;;2.58;0.52;;;;;;;;;;5033019;28;20068;-61
2023/02/06 03:28:31;;;;;;;3.10;0.65;;;;;;;;;;5031046;28;20045;-62
2023/02/06 03:30:59;;;;;;;1.88;0.60;;;;;;;;;;5034709;28;20087;-61
2023/02/06 03:33:33;;;;;;;1.27;0.40;;;;;;;;;;5032975;28;20046;-62
2023/02/06 03:35:59;;;;;;;2.22;0.60;;;;;;;;;;5031722;28;20049;-62
2023/02/06 03:38:27;;;;;;;1.60;0.50;;;;;;;;;;5032211;28;20041;-61
2023/02/06 03:40:55;;;;;;;1.23;0.43;;;;;;;;;;5035426;28;20041;-61
2023/02/06 03:43:24;;;;;;;1.33;0.45;;;;;;;;;;5033496;28;20041;-60
2023/02/06 03:45:53;;;;;;;2.00;0.50;;;;;;;;;;5031543;28;20045;-60
2023/02/06 03:48:23;;;;;;;2.65;0.68;;;;;;;;;;5023408;28;20045;-58
2023/02/06 03:50:53;;;;;;;1.15;0.40;;;;;;;;;;5032411;28;20056;-59
2023/02/06 03:53:21;;;;;;;0.68;0.38;;;;;;;;;;5029098;28;20041;-63
2023/02/06 03:55:50;;;;;;;2.05;0.60;;;;;;;;;;5029008;28;20482;-63
2023/02/06 03:58:17;;;;;;;2.65;0.60;;;;;;;;;;5027096;28;20406;-63
2023/02/06 04:00:44;;;;;;;3.00;0.68;;;;;;;;;;5027418;28;20045;-63
2023/02/06 04:03:11;;;;;;;2.35;0.70;;;;;;;;;;5027470;28;20100;-60
2023/02/06 04:05:38;;;;;;;0.65;0.40;;;;;;;;;;5028232;28;20089;-61
2023/02/06 04:08:05;;;;;;;1.85;0.60;;;;;;;;;;5028250;28;20109;-62
2023/02/06 04:10:32;;;;;;;1.58;0.40;;;;;;;;;;5025267;28;20064;-60
2023/02/06 04:12:59;;;;;;;2.35;0.40;;;;;;;;;;5030194;28;20045;-62
2023/02/06 04:15:25;;;;;;;1.67;0.60;;;;;;;;;;5028128;28;20037;-61
2023/02/06 04:17:52;;;;;;;0.55;0.30;;;;;;;;;;5031602;28;20052;-59
2023/02/06 04:20:19;;;;;;;0.85;0.40;;;;;;;;;;5032546;28;20044;-60
2023/02/06 04:22:46;;;;;;;2.78;0.50;;;;;;;;;;5029373;28;20061;-61
2023/02/06 04:25:13;;;;;;;1.23;0.47;;;;;;;;;;5031237;28;20109;-62
2023/02/06 04:27:40;;;;;;;1.02;0.40;;;;;;;;;;5031194;28;20044;-60
2023/02/06 04:30:06;;;;;;;2.40;0.60;;;;;;;;;;5032588;28;20136;-60
2023/02/06 04:32:36;;;;;;;1.38;0.52;;;;;;;;;;5030050;28;20033;-59
2023/02/06 04:35:03;;;;;;;0.90;0.32;;;;;;;;;;5029835;28;20552;-61
2023/02/06 04:37:29;;;;;;;2.13;0.57;;;;;;;;;;5028154;28;20045;-61
2023/02/06 04:39:56;;;;;;;6.72;0.80;;;;;;;;;;5024221;28;21685;-59
2023/02/06 04:42:22;;;;;;;2.13;0.60;;;;;;;;;;5020654;28;20041;-61
2023/02/06 04:44:49;;;;;;;1.00;0.40;;;;;;;;;;5021645;28;20069;-60
2023/02/06 04:47:16;;;;;;;1.50;0.43;;;;;;;;;;5022385;28;20123;-59
2023/02/06 04:49:42;;;;;;;1.45;0.50;;;;;;;;;;5021321;28;20125;-61
2023/02/06 04:52:09;;;;;;;1.38;0.50;;;;;;;;;;5022284;28;20044;-61
2023/02/06 04:54:36;;;;;;;0.68;0.40;;;;;;;;;;5020071;28;20216;-60
2023/02/06 04:57:02;;;;;;;0.77;0.35;;;;;;;;;;5021080;28;20060;-60
2023/02/06 04:59:29;;;;;;;1.13;0.40;;;;;;;;;;5020247;28;20099;-62
2023/02/06 05:01:56;;;;;;;1.23;0.50;;;;;;;;;;5022278;28;20502;-60
2023/02/06 05:04:22;;;;;;;0.65;0.40;;;;;;;;;;5020280;28;20068;-60
2023/02/06 05:06:49;;;;;;;1.38;0.50;;;;;;;;;;5022710;28;20049;-59
2023/02/06 05:09:15;;;;;;;3.17;0.40;;;;;;;;;;5021747;28;20038;-60
2023/02/06 05:11:42;;;;;;;0.82;0.40;;;;;;;;;;5022319;28;20051;-61
2023/02/06 05:14:09;;;;;;;1.45;0.45;;;;;;;;;;5024585;28;20076;-62
2023/02/06 05:16:35;;;;;;;0.68;0.40;;;;;;;;;;5021675;28;20055;-57
2023/02/06 05:19:02;;;;;;;2.88;0.47;;;;;;;;;;5021371;28;20045;-58
2023/02/06 05:21:29;;;;;;;0.60;0.30;;;;;;;;;;5020965;28;20107;-58
2023/02/06 05:23:55;;;;;;;1.13;0.40;;;;;;;;;;5021119;28;20324;-63
2023/02/06 05:26:22;;;;;;;1.42;0.40;;;;;;;;;;5021382;28;20049;-59
2023/02/06 05:28:48;;;;;;;1.35;0.40;;;;;;;;;;5020698;28;20450;-58
2023/02/06 05:31:18;;;;;;;0.40;0.30;;;;;;;;;;5022277;28;20034;-60
2023/02/06 05:33:50;;;;;;;0.57;0.40;;;;;;;;;;5021558;28;20607;-60
2023/02/06 05:36:17;;;;;;;1.90;0.40;;;;;;;;;;5023148;28;20072;-63
2023/02/06 05:38:44;;;;;;;0.93;0.40;;;;;;;;;;5021342;28;20041;-60
2023/02/06 05:41:11;;;;;;;1.05;0.30;;;;;;;;;;5022899;28;20048;-60
2023/02/06 05:43:37;;;;;;;1.05;0.35;;;;;;;;;;5026714;28;21521;-61
2023/02/06 05:46:04;;;;;;;3.88;0.40;;;;;;;;;;5029788;28;20037;-61
2023/02/06 05:48:33;;;;;;;1.23;0.50;;;;;;;;;;5026908;28;20037;-62
2023/02/06 05:50:59;;;;;;;1.40;0.40;;;;;;;;;;5027791;28;20060;-62
2023/02/06 05:53:26;;;;;;;1.35;0.50;;;;;;;;;;5017991;28;20782;-62
2023/02/06 05:55:53;;;;;;;2.88;0.43;;;;;;;;;;5029367;28;20044;-62
2023/02/06 05:58:20;;;;;;;0.77;0.32;;;;;;;;;;5026572;28;20120;-62
2023/02/06 06:00:46;;;;;;;2.30;0.40;;;;;;;;;;5024585;28;20490;-62
2023/02/06 06:03:13;;;;;;;1.02;0.40;;;;;;;;;;5026656;28;20128;-59
2023/02/06 06:05:39;;;;;;;1.08;0.50;;;;;;;;;;5025208;28;20041;-62
2023/02/06 06:08:06;;;;;;;3.78;0.45;;;;;;;;;;5028173;28;20111;-62
2023/02/06 06:10:33;;;;;;;1.17;0.40;;;;;;;;;;5027288;28;20068;-61
2023/02/06 06:13:00;;;;;;;0.63;0.30;;;;;;;;;;5029993;28;20045;-64
2023/02/06 06:15:26;;;;;;;0.60;0.30;;;;;;;;;;5027814;28;20723;-61
2023/02/06 06:17:53;;;;;;;1.40;0.50;;;;;;;;;;5025199;28;20042;-63
2023/02/06 06:20:20;;;;;;;0.70;0.40;;;;;;;;;;5025874;28;20088;-63
2023/02/06 06:22:46;;;;;;;2.50;0.57;;;;;;;;;;5030190;28;20389;-60
2023/02/06 06:25:13;;;;;;;3.33;0.40;;;;;;;;;;5032515;28;20053;-61
2023/02/06 06:27:40;;;;;;;1.20;0.43;;;;;;;;;;5025202;28;20106;-63
2023/02/06 06:30:07;;;;;;;1.60;0.50;;;;;;;;;;5013902;28;20530;-63
2023/02/06 06:32:33;;;;;;;1.27;0.40;;;;;;;;;;5019687;28;20109;-62
2023/02/06 06:35:00;;;;;;;1.27;0.40;;;;;;;;;;5027634;28;20047;-61
2023/02/06 06:37:27;;;;;;;0.38;0.30;;;;;;;;;;5027193;28;20033;-61
2023/02/06 06:39:54;;;;;;;0.88;0.30;;;;;;;;;;5027611;28;20029;-59
2023/02/06 06:42:22;;;;;;;1.02;0.40;;;;;;;;;;5028363;28;20044;-63
2023/02/06 06:44:48;;;;;;;1.15;0.40;;;;;;;;;;5024593;28;20037;-61
2023/02/06 06:47:15;;;;;;;1.10;0.40;;;;;;;;;;5028838;28;20079;-60
2023/02/06 06:49:42;;;;;;;1.08;0.40;;;;;;;;;;5026956;28;20069;-61
2023/02/06 06:52:08;;;;;;;1.13;0.40;;;;;;;;;;5029695;28;20049;-61
2023/02/06 06:54:35;;;;;;;0.85;0.40;;;;;;;;;;5023815;28;20738;-60
2023/02/06 06:57:01;;;;;;;1.38;0.47;;;;;;;;;;5032140;28;20099;-61
2023/02/06 06:59:28;;;;;;;0.82;0.32;;;;;;;;;;5028156;28;20030;-61
2023/02/06 07:01:55;;;;;;;0.45;0.30;;;;;;;;;;5028493;28;20129;-60
2023/02/06 07:04:22;;;;;;;1.17;0.32;;;;;;;;;;5029623;28;20122;-62
2023/02/06 07:06:48;;;;;;;0.70;0.30;;;;;;;;;;5031694;28;20037;-62
2023/02/06 07:09:15;;;;;;;0.73;0.30;;;;;;;;;;5032087;28;20050;-64
2023/02/06 07:11:42;;;;;;;0.65;0.30;;;;;;;;;;5028813;28;20119;-62
2023/02/06 07:14:08;;;;;;;4.43;0.60;;;;;;;;;;5030583;28;20057;-61
2023/02/06 07:16:36;;;;;;;3.13;0.50;;;;;;;;;;5030691;28;20123;-62
2023/02/06 07:19:03;;;;;;;0.73;0.40;;;;;;;;;;5029986;28;20124;-60
2023/02/06 07:21:30;;;;;;;1.30;0.40;;;;;;;;;;5011385;28;20037;-63
2023/02/06 07:23:57;;;;;;;1.25;0.40;;;;;;;;;;5029584;28;20094;-63
2023/02/06 07:26:23;;;;;;;1.33;0.40;;;;;;;;;;5030197;28;20045;-63
2023/02/06 07:28:51;;;;;;;0.70;0.40;;;;;;;;;;5030626;28;20533;-62
2023/02/06 07:31:18;;;;;;;0.70;0.40;;;;;;;;;;5026019;28;20844;-63
2023/02/06 07:33:44;;;;;;;1.60;0.40;;;;;;;;;;5031896;28;20037;-61
2023/02/06 07:36:11;;;;;;;0.63;0.32;;;;;;;;;;5031857;28;20037;-61
2023/02/06 07:38:38;;;;;;;1.13;0.40;;;;;;;;;;5027064;28;20088;-62
2023/02/06 07:41:05;;;;;;;1.52;0.40;;;;;;;;;;5030509;28;20525;-63
2023/02/06 07:43:32;;;;;;;1.05;0.40;;;;;;;;;;5027813;28;20037;-62
2023/02/06 07:46:00;;;;;;;0.98;0.40;;;;;;;;;;5025764;28;20294;-60
2023/02/06 07:48:27;;;;;;;1.27;0.40;;;;;;;;;;5026516;28;20046;-63
2023/02/06 07:50:53;;;;;;;1.75;0.50;;;;;;;;;;5028384;28;20029;-62
2023/02/06 07:53:20;;;;;;;1.50;0.40;;;;;;;;;;5029542;28;21419;-63
2023/02/06 07:55:47;;;;;;;3.20;0.50;;;;;;;;;;5029834;28;20064;-61
2023/02/06 07:58:14;;;;;;;2.28;0.60;;;;;;;;;;5029275;28;20029;-63
2023/02/06 08:00:41;;;;;;;1.77;0.55;;;;;;;;;;5028994;28;20076;-62
2023/02/06 08:03:08;;;;;;;1.30;0.50;;;;;;;;;;5028445;28;20053;-61
2023/02/06 08:05:37;;;;;;;1.60;0.50;;;;;;;;;;5028802;28;20038;-62
2023/02/06 08:08:05;;;;;;;1.73;0.50;;;;;;;;;;5028966;28;20037;-60
2023/02/06 08:10:32;;;;;;;1.90;0.60;;;;;;;;;;5031563;28;20067;-60
2023/02/06 08:13:20;;;;;;;2.60;0.60;;;;;;;;;;5008517;28;20042;-59
2023/02/06 08:15:46;;;;;;;1.33;0.50;;;;;;;;;;4992742;28;20433;-61
2023/02/06 08:18:13;;;;;;;1.77;0.40;;;;;;;;;;5008050;28;20084;-62
2023/02/06 08:20:40;;;;;;;1.13;0.40;;;;;;;;;;5009872;28;20042;-62
2023/02/06 08:23:06;;;;;;;1.98;0.50;;;;;;;;;;5009384;28;20053;-60
2023/02/06 08:25:33;;;;;;;1.17;0.50;;;;;;;;;;5007097;28;20034;-61
2023/02/06 08:28:01;;;;;;;1.13;0.40;;;;;;;;;;5008487;28;20085;-62
2023/02/06 08:30:28;;;;;;;1.33;0.45;;;;;;;;;;5010324;28;20072;-60
2023/02/06 08:32:54;;;;;;;1.35;0.50;;;;;;;;;;5010968;28;20037;-62
2023/02/06 08:35:21;;;;;;;0.93;0.50;;;;;;;;;;5009704;28;20072;-61
2023/02/06 08:37:48;;;;;;;0.88;0.38;;;;;;;;;;4994687;28;20065;-62
2023/02/06 08:40:15;;;;;;;0.85;0.40;;;;;;;;;;5003202;28;20077;-61
2023/02/06 08:42:41;;;;;;;1.83;0.50;;;;;;;;;;4999929;28;20117;-60
2023/02/06 08:45:08;;;;;;;1.42;0.50;;;;;;;;;;5001534;28;20423;-61
2023/02/06 08:47:35;;;;;;;0.38;0.30;;;;;;;;;;4998748;28;20049;-62
2023/02/06 08:50:02;;;;;;;2.63;0.45;;;;;;;;;;5001187;28;20033;-64
2023/02/06 08:52:29;;;;;;;1.23;0.40;;;;;;;;;;5001067;28;20095;-63
2023/02/06 08:54:55;;;;;;;0.30;0.30;;;;;;;;;;5002652;28;20038;-62
2023/02/06 08:57:22;;;;;;;1.40;0.40;;;;;;;;;;5001021;28;20309;-65
2023/02/06 08:59:48;;;;;;;1.15;0.40;;;;;;;;;;5002625;28;20411;-63
2023/02/06 09:02:15;;;;;;;1.35;0.40;;;;;;;;;;5003051;28;20602;-62
2023/02/06 09:04:42;;;;;;;1.08;0.40;;;;;;;;;;5016102;28;20054;-65
2023/02/06 09:07:08;;;;;;;1.05;0.40;;;;;;;;;;5004367;28;20084;-63
2023/02/06 09:09:35;;;;;;;1.27;0.47;;;;;;;;;;5003551;28;20053;-63
2023/02/06 09:12:02;;;;;;;1.23;0.50;;;;;;;;;;5005918;28;20045;-63
2023/02/06 09:14:29;;;;;;;1.65;0.50;;;;;;;;;;5005184;28;20038;-63
2023/02/06 09:16:56;;;;;;;3.05;0.50;;;;;;;;;;5003215;28;20490;-63
2023/02/06 09:19:24;;;;;;;1.30;0.40;;;;;;;;;;5001668;28;20514;-64
2023/02/06 09:21:50;;;;;;;2.47;0.40;;;;;;;;;;5003277;28;20501;-63
2023/02/06 09:24:17;;;;;;;2.47;0.65;;;;;;;;;;5001566;28;20094;-62
2023/02/06 09:26:45;;;;;;;3.03;0.80;;;;;;;;;;5004158;28;20056;-63
2023/02/06 09:29:13;;;;;;;1.92;0.68;;;;;;;;;;5007937;28;20042;-64
2023/02/06 09:31:44;;;;;;;1.15;0.43;;;;;;;;;;5007279;28;20045;-63
2023/02/06 09:34:12;;;;;;;2.10;0.60;;;;;;;;;;4999489;28;20056;-62
2023/02/06 09:36:38;;;;;;;2.67;0.55;;;;;;;;;;5000685;28;20136;-62
2023/02/06 09:39:06;;;;;;;1.30;0.40;;;;;;;;;;5000656;28;20038;-65
2023/02/06 09:42:02;;;;;;;1.67;0.50;;;;;;;;;;4994090;28;20116;-62
2023/02/06 09:44:43;;;;;;;1.58;0.45;;;;;;;;;;4984435;28;20626;-60
2023/02/06 09:47:10;;;;;;;0.32;0.30;;;;;;;;;;5014274;28;20819;-61
2023/02/06 09:49:39;;;;;;;0.85;0.40;;;;;;;;;;5001927;28;20050;-62
2023/02/06 09:52:08;;;;;;;0.80;0.30;;;;;;;;;;4989046;28;20038;-64
2023/02/06 09:54:57;;;;;;;1.73;0.50;;;;;;;;;;5001513;28;20437;-64
2023/02/06 09:57:24;;;;;;;2.03;0.50;;;;;;;;;;4999172;28;20104;-62
2023/02/06 09:59:58;;;;;;;1.77;0.55;;;;;;;;;;5001105;28;20038;-61
2023/02/06 10:02:50;;;;;;;1.05;0.50;;;;;;;;;;5002460;28;20065;-61
2023/02/06 10:05:46;;;;;;;2.03;0.50;;;;;;;;;;5002242;28;20041;-64
2023/02/06 10:08:44;;;;;;;0.98;0.40;;;;;;;;;;4984602;28;20453;-62
2023/02/06 10:11:15;;;;;;;0.98;0.40;;;;;;;;;;4984489;28;20044;-64
2023/02/06 10:13:48;;;;;;;0.93;0.40;;;;;;;;;;4990276;28;20825;-63
2023/02/06 10:16:25;;;;;;;1.37;0.40;;;;;;;;;;4993811;28;20300;-61
2023/02/06 10:18:56;;;;;;;2.22;0.50;;;;;;;;;;4989989;28;20096;-62
2023/02/06 10:21:47;;;;;;;1.02;0.40;;;;;;;;;;4972845;28;20066;-63
2023/02/06 10:24:23;;;;;;;1.98;0.50;;;;;;;;;;4968696;28;20058;-62
2023/02/06 10:26:52;;;;;;;0.82;0.30;;;;;;;;;;4971995;28;20047;-63
2023/02/06 10:29:37;;;;;;;1.35;0.40;;;;;;;;;;4954532;28;21753;-67
2023/02/06 10:32:14;;;;;;;1.73;0.50;;;;;;;;;;4974196;28;20038;-62
2023/02/06 10:34:58;;;;;;;1.48;0.43;;;;;;;;;;4990166;28;20175;-62
2023/02/06 10:37:27;;;;;;;1.02;0.40;;;;;;;;;;4990467;28;20107;-61
2023/02/06 10:40:12;;;;;;;1.35;0.45;;;;;;;;;;4987669;28;20105;-64
2023/02/06 10:42:40;;;;;;;1.42;0.50;;;;;;;;;;4990523;28;20052;-62
2023/02/06 10:45:15;;;;;;;1.30;0.40;;;;;;;;;;4991728;28;20030;-62
2023/02/06 10:47:49;;;;;;;0.70;0.30;;;;;;;;;;4997917;28;20111;-62
2023/02/06 10:50:39;;;;;;;0.90;0.40;;;;;;;;;;5000800;28;20041;-64
2023/02/06 10:53:26;;;;;;;1.17;0.40;;;;;;;;;;5019514;28;20101;-65
2023/02/06 10:55:56;;;;;;;0.70;0.43;;;;;;;;;;4956547;28;20049;-63
2023/02/06 10:58:28;;;;;;;1.25;0.40;;;;;;;;;;4928152;28;20036;-64
2023/02/06 11:00:55;;;;;;;1.53;0.50;;;;;;;;;;4926467;28;20103;-64
2023/02/06 11:03:25;;;;;;;1.27;0.40;;;;;;;;;;4930281;28;20317;-61
2023/02/06 11:05:52;;;;;;;1.52;0.50;;;;;;;;;;4936635;28;20111;-62
2023/02/06 11:08:28;;;;;;;1.83;0.45;;;;;;;;;;4935492;28;20032;-70
2023/02/06 11:10:55;;;;;;;1.67;0.50;;;;;;;;;;4936681;28;20060;-62
2023/02/06 11:13:34;;;;;;;1.52;0.50;;;;;;;;;;4935596;28;20058;-62
2023/02/06 11:16:11;;;;;;;2.28;0.60;;;;;;;;;;4930093;28;20517;-62
2023/02/06 11:18:39;;;;;;;0.73;0.40;;;;;;;;;;4935766;28;20039;-61
2023/02/06 11:21:07;;;;;;;1.15;0.40;;;;;;;;;;4930554;28;20072;-61
2023/02/06 11:23:34;;;;;;;2.00;0.65;;;;;;;;;;4934227;28;20051;-62
2023/02/06 11:26:17;;;;;;;0.77;0.40;;;;;;;;;;4940503;28;20043;-63
2023/02/06 11:29:10;;;;;;;1.83;0.50;;;;;;;;;;4923569;28;20207;-65
2023/02/06 11:31:39;;;;;;;1.15;0.40;;;;;;;;;;4920900;28;20134;-61
2023/02/06 11:34:06;;;;;;;1.23;0.50;;;;;;;;;;4974332;28;20105;-62
2023/02/06 11:36:35;;;;;;;1.80;0.65;;;;;;;;;;4980998;28;20125;-63
2023/02/06 11:39:04;;;;;;;2.58;0.52;;;;;;;;;;4982451;28;20038;-63
2023/02/06 11:41:31;;;;;;;2.35;0.60;;;;;;;;;;4980746;28;20053;-60
2023/02/06 11:44:05;;;;;;;1.90;0.60;;;;;;;;;;4982617;28;20129;-63
2023/02/06 11:46:31;;;;;;;;;;;;;;;;;;4980576;28;20188;-62
2023/02/06 11:49:02;;;;;;;1.42;0.50;;;;;;;;;;4998144;28;19917;-66
2023/02/06 11:51:52;;;;;;;1.55;0.50;;;;;;;;;;5000869;28;20840;-63
2023/02/06 11:54:20;;;;;;;1.95;0.50;;;;;;;;;;5017812;28;20037;-62
2023/02/06 11:57:06;;;;;;;1.05;0.40;;;;;;;;;;5024468;28;20202;-63
2023/02/06 11:59:36;;;;;;;1.63;0.60;;;;;;;;;;5022383;28;20487;-63
2023/02/06 12:02:05;;;;;;;0.93;0.47;;;;;;;;;;5021239;28;20494;-64
2023/02/06 12:04:35;;;;;;;2.95;0.98;;;;;;;;;;5023279;28;20474;-61
2023/02/06 12:07:05;;;;;;;3.05;0.80;;;;;;;;;;5025083;28;20073;-62
2023/02/06 12:09:32;;;;;;;1.33;0.57;;;;;;;;;;5026348;28;20045;-64
2023/02/06 12:11:59;;;;;;;5.70;1.00;;;;;;;;;;5031582;28;20041;-63
2023/02/06 12:14:35;;;;;;;2.55;0.80;;;;;;;;;;5026521;28;20042;-60
2023/02/06 12:17:05;;;;;;;1.75;0.50;;;;;;;;;;5014130;28;20577;-64
2023/02/06 12:19:35;;;;;;;1.38;0.50;;;;;;;;;;5028099;28;20068;-64
2023/02/06 12:22:05;;;;;;;2.90;0.50;;;;;;;;;;5028837;28;20043;-62
2023/02/06 12:24:54;;;;;;;1.95;0.60;;;;;;;;;;4999904;28;20579;-66
2023/02/06 12:27:24;;;;;;;2.30;0.50;;;;;;;;;;5024013;28;20049;-64
2023/02/06 12:30:11;;;;;;;2.38;0.70;;;;;;;;;;5014991;28;20038;-62
2023/02/06 12:32:40;;;;;;;1.55;0.50;;;;;;;;;;5008347;28;20049;-64
2023/02/06 12:35:33;;;;;;;2.15;0.60;;;;;;;;;;5008608;28;20159;-63
2023/02/06 12:38:03;;;;;;;4.65;0.80;;;;;;;;;;5008928;28;20494;-67
2023/02/06 12:40:37;;;;;;;2.03;0.68;;;;;;;;;;5022569;28;20041;-61
2023/02/06 12:43:08;;;;;;;3.22;0.50;;;;;;;;;;5013923;28;20554;-61
2023/02/06 12:45:59;;;;;;;6.80;0.85;;;;;;;;;;5022810;28;20044;-63
2023/02/06 12:48:48;;;;;;;1.52;0.60;;;;;;;;;;5013103;28;20569;-64
2023/02/06 12:51:31;;;;;;;7.47;0.85;;;;;;;;;;5012366;28;20224;-65
2023/02/06 12:53:57;;;;;;;2.53;0.68;;;;;;;;;;5014835;28;20068;-63
2023/02/06 12:56:47;;;;;;;4.35;0.70;;;;;;;;;;4966476;28;20038;-64
2023/02/06 12:59:43;;;;;;;2.35;0.70;;;;;;;;;;4967264;28;20114;-63
2023/02/06 13:02:23;;;;;;;2.47;0.70;;;;;;;;;;4974443;28;20451;-59
2023/02/06 13:04:51;;;;;;;7.15;1.02;;;;;;;;;;4996044;28;20434;-65
2023/02/06 13:07:21;;;;;;;14.98;1.98;;;;;;;;;;4980677;28;20052;-63
2023/02/06 13:09:49;;;;;;;4.07;0.95;;;;;;;;;;4978282;28;20038;-63
2023/02/06 13:12:20;;;;;;;1.88;0.60;;;;;;;;;;4976580;28;20080;-64
2023/02/06 13:14:52;;;;;;;1.60;0.60;;;;;;;;;;4976405;28;20034;-63
2023/02/06 13:17:23;;;;;;;3.03;0.90;;;;;;;;;;4976270;28;20779;-65
2023/02/06 13:19:51;;;;;;;3.53;0.85;;;;;;;;;;4976161;28;20049;-63
2023/02/06 13:22:23;;;;;;;3.35;0.95;;;;;;;;;;4966054;28;20169;-64
2023/02/06 13:24:52;;;;;;;2.33;0.80;;;;;;;;;;4973696;28;20053;-62
2023/02/06 13:27:23;;;;;;;18.17;6.13;;;;;;;;;;4984837;28;20685;-66
2023/02/06 13:29:55;;;;;;;7.43;3.50;;;;;;;;;;5002030;28;20045;-64
2023/02/06 13:32:24;;;;;;;3.90;1.10;;;;;;;;;;4997859;28;20053;-65
2023/02/06 13:34:53;;;;;;;4.15;1.20;;;;;;;;;;5012112;28;20063;-62
2023/02/06 13:37:25;;;;;;;2.60;0.90;;;;;;;;;;5000291;28;20403;-64
2023/02/06 13:40:11;;;;;;;3.05;0.90;;;;;;;;;;5000808;28;20041;-59
2023/02/06 13:42:47;;;;;;;6.50;1.30;;;;;;;;;;5012919;28;20038;-63
2023/02/06 13:45:20;;;;;;;4.03;1.40;;;;;;;;;;5001134;28;20046;-61
2023/02/06 13:47:47;;;;;;;6.60;0.97;;;;;;;;;;4999094;28;20157;-59
2023/02/06 13:50:16;;;;;;;7.18;1.15;;;;;;;;;;4999510;28;20033;-65
2023/02/06 13:52:46;;;;;;;7.28;1.25;;;;;;;;;;5000288;28;20473;-63
2023/02/06 13:55:20;;;;;;;2.97;1.20;;;;;;;;;;5000210;28;20041;-62
2023/02/06 13:58:05;;;;;;;2.72;0.90;;;;;;;;;;5000547;28;20180;-63
2023/02/06 14:00:33;;;;;;;2.85;1.00;;;;;;;;;;5001007;28;20080;-62
2023/02/06 14:03:12;;;;;;;7.32;2.55;;;;;;;;;;5000437;28;20052;-65
2023/02/06 14:05:45;;;;;;;3.20;1.05;;;;;;;;;;4997211;28;20073;-65
2023/02/06 14:08:32;;;;;;;17.73;7.95;;;;;;;;;;4999433;28;21459;-62
2023/02/06 14:11:12;;;;;;;3.72;1.13;;;;;;;;;;4975161;28;20083;-61
2023/02/06 14:13:47;;;;;;;2.30;0.90;;;;;;;;;;5000495;28;20180;-64
2023/02/06 14:16:32;;;;;;;4.63;0.95;;;;;;;;;;5000080;28;20069;-62
2023/02/06 14:19:04;;;;;;;3.65;0.98;;;;;;;;;;4992250;28;20046;-62
2023/02/06 14:21:44;;;;;;;4.57;1.00;;;;;;;;;;4997952;28;20049;-63
2023/02/06 14:24:22;;;;;;;2.38;0.65;;;;;;;;;;5003184;28;20053;-61
2023/02/06 14:26:59;;;;;;;2.38;0.70;;;;;;;;;;5019445;28;20045;-60
2023/02/06 14:29:59;;;;;;;3.45;0.80;;;;;;;;;;5010091;28;20049;-63
2023/02/06 14:32:44;;;;;;;3.30;0.70;;;;;;;;;;4996092;28;20080;-63
2023/02/06 14:35:34;;;;;;;2.10;0.68;;;;;;;;;;5012295;28;20041;-61
2023/02/06 14:38:07;;;;;;;1.48;0.50;;;;;;;;;;4989036;28;20045;-63
2023/02/06 14:40:37;;;;;;;7.20;0.60;;;;;;;;;;5010471;28;20073;-63
2023/02/06 14:43:06;;;;;;;3.10;0.70;;;;;;;;;;5022513;28;20049;-63
2023/02/06 14:45:34;;;;;;;11.70;0.82;;;;;;;;;;5017654;28;20422;-64
2023/02/06 14:48:02;;;;;;;2.45;0.70;;;;;;;;;;5015104;28;20418;-61
2023/02/06 14:50:31;;;;;;;3.25;0.80;;;;;;;;;;5012157;28;21996;-63
2023/02/06 14:53:01;;;;;;;3.42;1.08;;;;;;;;;;5009864;28;20412;-63
2023/02/06 14:55:34;;;;;;;3.58;0.80;;;;;;;;;;5010832;28;20045;-61
2023/02/06 14:58:01;;;;;;;1.40;0.40;;;;;;;;;;5012365;28;20051;-61
2023/02/06 15:00:28;;;;;;;1.92;0.57;;;;;;;;;;5008029;28;20041;-62
2023/02/06 15:03:05;;;;;;;2.33;0.60;;;;;;;;;;5015210;28;20040;-65